Time;durP1;ratioP1;P1;durP2;ratioP2;P2;SDS_P1;SDS_P2;PMS_P1;PMS_P2;Temp;Humidity;BMP_temperature;BMP_pressure;BME280_temperature;BME280_humidity;BME280_pressure;Samples;Min_cycle;Max_cycle;Signal;HPM_P1;HPM_P2
2021/12/30 00:00:10;;;;;;;0.57;0.43;;;9.00;99.90;;;;;;5116171;27;20494;-82
2021/12/30 00:02:36;;;;;;;0.75;0.75;;;8.90;99.90;;;;;;5116099;28;20050;-83
2021/12/30 00:05:03;;;;;;;0.70;0.70;;;8.90;99.90;;;;;;5133993;27;20047;-83
2021/12/30 00:07:30;;;;;;;1.05;0.98;;;8.90;99.90;;;;;;5116011;28;20499;-86
2021/12/30 00:09:55;;;;;;;0.32;0.32;;;8.80;99.90;;;;;;5116376;28;20153;-89
2021/12/30 00:12:21;;;;;;;0.73;0.70;;;8.90;99.90;;;;;;5134630;28;20498;-85
2021/12/30 00:14:47;;;;;;;0.20;0.20;;;8.80;99.90;;;;;;5134330;28;20043;-86
2021/12/30 00:17:12;;;;;;;3.03;2.90;;;8.80;99.90;;;;;;5115936;28;20043;-89
2021/12/30 00:19:38;;;;;;;2.20;0.63;;;8.80;99.90;;;;;;5134448;28;20044;-88
2021/12/30 00:22:04;;;;;;;0.95;0.95;;;8.80;99.90;;;;;;5116225;28;20436;-91
2021/12/30 00:24:29;;;;;;;0.95;0.95;;;8.80;99.90;;;;;;5116269;28;20632;-89
2021/12/30 00:26:55;;;;;;;2.63;2.47;;;8.80;99.90;;;;;;5116179;28;20039;-90
2021/12/30 00:29:21;;;;;;;2.45;0.80;;;8.80;99.90;;;;;;5099138;28;20379;-90
2021/12/30 00:31:46;;;;;;;2.45;1.98;;;8.90;99.90;;;;;;5117142;28;20121;-90
2021/12/30 00:34:12;;;;;;;2.33;1.90;;;8.80;99.90;;;;;;5134170;28;20504;-85
2021/12/30 00:36:38;;;;;;;24.92;2.65;;;8.80;99.90;;;;;;5134041;28;20047;-89
2021/12/30 00:39:04;;;;;;;2.83;1.48;;;8.80;99.90;;;;;;5115749;28;20487;-88
2021/12/30 00:41:29;;;;;;;2.75;2.10;;;8.80;99.90;;;;;;5134167;28;20384;-87
2021/12/30 00:43:55;;;;;;;1.63;1.55;;;8.80;99.90;;;;;;5134359;28;20059;-88
2021/12/30 00:46:21;;;;;;;0.13;0.13;;;8.80;99.90;;;;;;5134313;28;20042;-88
2021/12/30 00:48:46;;;;;;;4.22;1.95;;;8.80;99.90;;;;;;5134107;28;20456;-87
2021/12/30 00:51:12;;;;;;;1.60;1.58;;;8.70;99.90;;;;;;5133609;28;20072;-87
2021/12/30 00:53:38;;;;;;;1.10;0.77;;;8.70;99.90;;;;;;5134108;27;20043;-89
2021/12/30 00:56:04;;;;;;;0.90;0.90;;;8.70;99.90;;;;;;5136492;27;20039;-90
2021/12/30 00:58:30;;;;;;;3.05;2.33;;;8.70;99.90;;;;;;5137670;27;20047;-90
2021/12/30 01:00:56;;;;;;;0.30;0.30;;;8.80;99.90;;;;;;5138087;27;20072;-89
2021/12/30 01:03:22;;;;;;;0.52;0.52;;;8.60;99.90;;;;;;5138652;27;20039;-93
2021/12/30 01:05:48;;;;;;;1.48;1.48;;;8.60;99.90;;;;;;5137826;27;20610;-91
2021/12/30 01:08:14;;;;;;;2.53;2.28;;;8.60;99.90;;;;;;5137899;27;20118;-92
2021/12/30 01:10:41;;;;;;;4.47;1.75;;;8.60;99.90;;;;;;5119688;27;20043;-95
2021/12/30 01:13:15;;;;;;;4.80;1.73;;;8.60;99.90;;;;;;5120255;27;20054;-94
2021/12/30 01:15:59;;;;;;;13.68;0.90;;;8.50;99.90;;;;;;5119922;27;20047;-93
2021/12/30 01:18:53;;;;;;;3.95;1.77;;;8.50;99.90;;;;;;5119835;27;20048;-93
2021/12/30 01:21:19;;;;;;;2.03;1.92;;;8.50;99.90;;;;;;5120990;27;20041;-95
2021/12/30 01:23:45;;;;;;;32.53;4.72;;;8.50;99.90;;;;;;5139873;27;20090;-92
2021/12/30 01:26:11;;;;;;;1.25;1.25;;;8.40;99.90;;;;;;5122008;27;20081;-94
2021/12/30 01:28:37;;;;;;;7.72;3.03;;;8.50;99.90;;;;;;5138696;27;20092;-93
2021/12/30 01:31:04;;;;;;;2.97;2.38;;;8.50;99.90;;;;;;5137382;27;20502;-92
2021/12/30 01:33:30;;;;;;;15.90;1.33;;;8.50;99.90;;;;;;5118927;27;20082;-93
2021/12/30 01:35:56;;;;;;;3.50;3.30;;;8.60;99.90;;;;;;5137494;27;20089;-88
2021/12/30 01:38:22;;;;;;;5.88;1.30;;;8.50;99.90;;;;;;5118912;27;20512;-92
2021/12/30 01:40:52;;;;;;;6.15;1.42;;;8.50;99.90;;;;;;5102032;27;20043;-93
2021/12/30 01:43:18;;;;;;;0.63;0.63;;;8.40;99.90;;;;;;5119081;27;20079;-91
2021/12/30 01:45:45;;;;;;;8.77;0.60;;;8.40;99.90;;;;;;5119169;27;20079;-94
2021/12/30 01:48:12;;;;;;;5.35;4.40;;;8.40;99.90;;;;;;5119258;27;20043;-95
2021/12/30 01:50:38;;;;;;;1.38;1.30;;;8.30;99.90;;;;;;5118984;27;20050;-90
2021/12/30 01:53:05;;;;;;;3.53;1.75;;;8.30;99.90;;;;;;5118600;27;20444;-94
2021/12/30 01:55:32;;;;;;;3.90;1.98;;;8.30;99.90;;;;;;5137242;27;20055;-93
2021/12/30 01:58:00;;;;;;;24.65;2.17;;;8.30;99.90;;;;;;5118904;27;20059;-91
2021/12/30 02:00:26;;;;;;;2.17;2.05;;;8.30;99.90;;;;;;5118508;27;20043;-88
2021/12/30 02:02:52;;;;;;;1.15;1.15;;;8.30;99.90;;;;;;5118295;27;20047;-80
2021/12/30 02:05:18;;;;;;;2.08;1.05;;;8.20;99.90;;;;;;5136642;27;20115;-92
2021/12/30 02:07:44;;;;;;;0.60;0.55;;;8.30;99.90;;;;;;5118839;27;20483;-93
2021/12/30 02:10:12;;;;;;;28.33;6.95;;;8.40;99.90;;;;;;5118497;27;20100;-92
2021/12/30 02:12:39;;;;;;;0.60;0.60;;;8.40;99.90;;;;;;5118261;27;20058;-90
2021/12/30 02:15:08;;;;;;;2.05;1.83;;;8.40;99.90;;;;;;5118529;27;20092;-91
2021/12/30 02:17:34;;;;;;;2.10;1.00;;;8.40;99.90;;;;;;5121224;27;20046;-93
2021/12/30 02:23:40;;;;;;;0.73;0.15;;;8.40;99.90;;;;;;5137309;27;20079;-93
2021/12/30 02:26:17;;;;;;;1.70;1.65;;;8.40;99.90;;;;;;5118181;27;20043;-90
2021/12/30 02:28:44;;;;;;;14.02;3.45;;;8.30;99.90;;;;;;5117986;27;20082;-91
2021/12/30 02:31:14;;;;;;;0.85;0.85;;;8.30;99.90;;;;;;5117947;27;20050;-90
2021/12/30 02:33:42;;;;;;;2.55;1.02;;;8.20;99.90;;;;;;5136164;27;20035;-93
2021/12/30 02:36:08;;;;;;;0.35;0.35;;;8.20;99.90;;;;;;5136282;27;20065;-92
2021/12/30 02:38:35;;;;;;;2.55;2.45;;;8.10;99.90;;;;;;5117737;27;20043;-94
2021/12/30 02:41:02;;;;;;;7.68;2.47;;;8.10;99.90;;;;;;5117702;27;20047;-92
2021/12/30 02:43:30;;;;;;;3.70;3.47;;;8.10;99.90;;;;;;5117687;27;20127;-92
2021/12/30 02:45:58;;;;;;;3.75;1.10;;;8.20;99.90;;;;;;5118147;27;20480;-93
2021/12/30 02:48:27;;;;;;;0.30;0.30;;;8.10;99.90;;;;;;5117619;27;20047;-88
2021/12/30 02:50:57;;;;;;;2.28;2.15;;;8.10;99.90;;;;;;5117720;27;20047;-90
2021/12/30 02:53:24;;;;;;;0.68;0.68;;;8.20;99.90;;;;;;5136093;27;20043;-92
2021/12/30 02:55:51;;;;;;;2.90;0.95;;;8.30;99.90;;;;;;5118209;27;20062;-91
2021/12/30 02:58:17;;;;;;;2.35;2.25;;;8.40;99.90;;;;;;5117045;27;20062;-89
2021/12/30 03:00:44;;;;;;;5.10;1.85;;;8.50;99.90;;;;;;5118057;27;20108;-91
2021/12/30 03:03:21;;;;;;;5.22;2.75;;;8.50;99.90;;;;;;5117791;27;20043;-94
2021/12/30 03:05:48;;;;;;;8.60;2.90;;;8.60;99.90;;;;;;5114302;28;20043;-93
2021/12/30 03:08:15;;;;;;;1.08;1.08;;;8.70;99.90;;;;;;5097883;28;20499;-94
2021/12/30 03:10:41;;;;;;;5.03;3.13;;;8.80;99.90;;;;;;5099363;28;20555;-93
2021/12/30 03:13:10;;;;;;;3.50;1.73;;;8.80;99.90;;;;;;5100961;28;20063;-92
2021/12/30 03:15:36;;;;;;;2.55;2.25;;;8.90;99.90;;;;;;5099488;28;20044;-90
2021/12/30 03:18:03;;;;;;;2.85;1.88;;;8.80;99.90;;;;;;5096719;28;20377;-93
2021/12/30 03:20:34;;;;;;;13.68;3.45;;;9.00;99.90;;;;;;5079736;28;20122;-91
2021/12/30 03:23:01;;;;;;;7.82;3.70;;;9.00;99.90;;;;;;5079566;28;20051;-88
2021/12/30 03:25:27;;;;;;;1.27;0.80;;;9.20;99.90;;;;;;5096503;28;20079;-92
2021/12/30 03:27:53;;;;;;;6.70;2.42;;;9.20;99.90;;;;;;5096511;28;20079;-88
2021/12/30 03:30:18;;;;;;;4.75;2.53;;;9.20;99.90;;;;;;5096675;28;20051;-87
2021/12/30 03:32:45;;;;;;;6.10;5.50;;;9.30;99.90;;;;;;5114588;28;20047;-87
2021/12/30 03:35:12;;;;;;;4.32;4.00;;;9.20;99.90;;;;;;5106324;28;20046;-90
2021/12/30 03:37:38;;;;;;;2.33;1.67;;;9.30;99.90;;;;;;5096177;28;20058;-93
2021/12/30 03:40:09;;;;;;;3.22;3.03;;;9.30;99.90;;;;;;5114643;28;20039;-88
2021/12/30 03:42:35;;;;;;;9.45;3.90;;;9.40;99.90;;;;;;5096363;28;20515;-91
2021/12/30 03:45:02;;;;;;;2.78;2.38;;;9.30;99.90;;;;;;5096007;28;20043;-90
2021/12/30 03:47:28;;;;;;;5.45;3.50;;;9.50;99.90;;;;;;5096498;28;20377;-92
2021/12/30 03:49:54;;;;;;;17.17;6.15;;;9.50;99.90;;;;;;5096214;28;20036;-88
2021/12/30 03:52:26;;;;;;;5.43;4.05;;;9.50;99.90;;;;;;5113990;28;20108;-91
2021/12/30 03:54:52;;;;;;;22.08;2.17;;;9.50;99.90;;;;;;5096218;28;20048;-91
2021/12/30 03:57:18;;;;;;;3.22;1.80;;;9.50;99.90;;;;;;5113903;28;20096;-92
2021/12/30 03:59:44;;;;;;;11.25;3.13;;;9.60;99.90;;;;;;5079243;28;20492;-94
2021/12/30 04:02:09;;;;;;;2.95;2.75;;;9.60;99.90;;;;;;5114265;28;20074;-91
2021/12/30 04:04:35;;;;;;;17.20;1.65;;;9.60;99.90;;;;;;5123123;27;20031;-90
2021/12/30 04:07:01;;;;;;;8.75;3.03;;;9.60;99.90;;;;;;5116480;28;20551;-88
2021/12/30 04:09:27;;;;;;;4.05;3.13;;;9.60;99.90;;;;;;5134435;27;20172;-90
2021/12/30 04:11:53;;;;;;;5.32;1.10;;;9.70;99.90;;;;;;5116285;28;20043;-93
2021/12/30 04:14:19;;;;;;;10.52;2.58;;;9.60;99.90;;;;;;5134595;28;20043;-88
2021/12/30 04:16:46;;;;;;;10.65;5.38;;;9.60;99.90;;;;;;5116463;28;20047;-94
2021/12/30 04:19:12;;;;;;;1.52;1.25;;;9.60;99.90;;;;;;5116171;28;20054;-94
2021/12/30 04:21:37;;;;;;;2.47;2.38;;;9.60;99.90;;;;;;5134751;28;20058;-94
2021/12/30 04:24:04;;;;;;;6.80;2.10;;;9.60;99.90;;;;;;5115854;28;20112;-89
2021/12/30 04:26:29;;;;;;;3.10;2.90;;;9.60;99.90;;;;;;5116180;28;20487;-88
2021/12/30 04:28:56;;;;;;;4.15;3.35;;;9.60;99.90;;;;;;5117386;27;20043;-91
2021/12/30 04:31:23;;;;;;;4.65;2.78;;;9.60;99.90;;;;;;5139246;27;20067;-85
2021/12/30 04:33:49;;;;;;;11.27;5.63;;;9.70;99.90;;;;;;5138937;27;20039;-93
2021/12/30 04:36:14;;;;;;;6.68;3.17;;;9.70;99.90;;;;;;5138721;27;20216;-93
2021/12/30 04:38:40;;;;;;;1.98;1.75;;;9.70;99.90;;;;;;5120313;27;20083;-92
2021/12/30 04:41:07;;;;;;;6.78;2.72;;;9.70;99.90;;;;;;5120480;27;20047;-90
2021/12/30 04:43:33;;;;;;;6.03;3.65;;;9.90;99.90;;;;;;5138766;27;20055;-91
2021/12/30 04:46:00;;;;;;;9.80;2.67;;;9.80;99.90;;;;;;5120320;27;20049;-93
2021/12/30 04:48:27;;;;;;;21.23;3.03;;;9.80;99.90;;;;;;5138517;27;20546;-89
2021/12/30 04:50:53;;;;;;;1.88;1.67;;;9.80;99.90;;;;;;5120424;27;20073;-91
2021/12/30 04:53:19;;;;;;;4.15;2.67;;;9.90;99.90;;;;;;5120014;27;20112;-94
2021/12/30 04:55:46;;;;;;;1.35;0.60;;;9.80;99.90;;;;;;5120342;27;20061;-93
2021/12/30 04:58:13;;;;;;;15.80;4.95;;;9.80;99.90;;;;;;5119665;27;20051;-90
2021/12/30 05:00:39;;;;;;;2.15;1.92;;;9.80;99.90;;;;;;5120260;27;20494;-91
2021/12/30 05:03:09;;;;;;;3.53;3.25;;;9.80;99.90;;;;;;5121315;27;20130;-91
2021/12/30 05:05:47;;;;;;;6.68;2.17;;;9.80;99.90;;;;;;5121871;27;20054;-93
2021/12/30 05:08:14;;;;;;;1.30;0.95;;;9.80;99.90;;;;;;5121618;27;20051;-88
2021/12/30 05:10:41;;;;;;;20.60;1.85;;;9.80;99.90;;;;;;5120005;27;20051;-92
2021/12/30 05:13:08;;;;;;;2.15;1.52;;;9.80;99.90;;;;;;5120180;27;20066;-90
2021/12/30 05:15:35;;;;;;;1.05;1.00;;;9.80;99.90;;;;;;5119677;27;20043;-87
2021/12/30 05:18:01;;;;;;;5.07;3.25;;;9.90;99.90;;;;;;5119451;27;20039;-89
2021/12/30 05:20:27;;;;;;;5.35;2.63;;;9.70;99.90;;;;;;5119814;27;20126;-89
2021/12/30 05:22:53;;;;;;;2.13;2.03;;;9.80;99.90;;;;;;5119701;27;20039;-89
2021/12/30 05:25:20;;;;;;;0.88;0.88;;;9.70;99.90;;;;;;5119399;27;20087;-90
2021/12/30 05:27:47;;;;;;;2.60;2.40;;;9.80;99.90;;;;;;5138070;27;20058;-89
2021/12/30 05:30:15;;;;;;;2.85;2.13;;;9.90;99.90;;;;;;5119505;27;20090;-90
2021/12/30 05:32:41;;;;;;;5.88;4.68;;;9.90;99.90;;;;;;5119171;27;20043;-91
2021/12/30 05:35:09;;;;;;;2.45;1.65;;;9.90;99.90;;;;;;5119219;27;20043;-90
2021/12/30 05:37:35;;;;;;;1.98;1.08;;;10.00;99.90;;;;;;5137648;27;20039;-84
2021/12/30 05:40:01;;;;;;;2.95;2.83;;;10.00;99.90;;;;;;5119341;27;20035;-92
2021/12/30 05:42:27;;;;;;;1.75;0.85;;;10.00;99.90;;;;;;5119314;27;20062;-90
2021/12/30 05:44:54;;;;;;;17.77;2.38;;;10.10;99.90;;;;;;5137778;27;20384;-90
2021/12/30 05:47:20;;;;;;;1.75;1.65;;;10.10;99.90;;;;;;5119261;27;20487;-91
2021/12/30 05:49:47;;;;;;;1.23;1.15;;;10.10;99.90;;;;;;5137498;27;20038;-90
2021/12/30 05:52:13;;;;;;;7.35;1.48;;;10.20;99.90;;;;;;5119176;27;20172;-90
2021/12/30 05:54:40;;;;;;;2.90;1.42;;;10.20;99.90;;;;;;5137109;27;20050;-94
2021/12/30 05:57:06;;;;;;;2.90;1.80;;;10.20;99.90;;;;;;5137277;27;20067;-96
2021/12/30 05:59:32;;;;;;;2.20;2.10;;;10.20;99.90;;;;;;5120478;27;20054;-95
2021/12/30 06:01:58;;;;;;;1.88;1.73;;;10.20;99.90;;;;;;5140438;27;20036;-92
2021/12/30 06:04:25;;;;;;;4.13;2.15;;;10.20;99.90;;;;;;5120656;27;20043;-91
2021/12/30 06:06:50;;;;;;;0.75;0.70;;;10.20;99.90;;;;;;5119412;27;20050;-91
2021/12/30 06:09:16;;;;;;;1.30;1.20;;;10.10;99.90;;;;;;5118893;27;20395;-85
2021/12/30 06:11:43;;;;;;;8.73;0.68;;;10.10;99.90;;;;;;5118982;27;20050;-92
2021/12/30 06:14:08;;;;;;;2.28;2.08;;;10.20;99.90;;;;;;5137171;27;20039;-91
2021/12/30 06:16:34;;;;;;;2.17;0.63;;;10.10;99.90;;;;;;5136789;27;20031;-91
2021/12/30 06:19:00;;;;;;;0.60;0.60;;;10.00;99.90;;;;;;5118431;27;20039;-87
2021/12/30 06:21:26;;;;;;;1.90;1.50;;;9.90;99.90;;;;;;5136778;27;20118;-91
2021/12/30 06:23:52;;;;;;;0.32;0.30;;;10.00;99.90;;;;;;5118359;27;20050;-92
2021/12/30 06:26:18;;;;;;;3.13;2.38;;;9.90;99.90;;;;;;5118559;27;20487;-88
2021/12/30 06:28:44;;;;;;;0.65;0.52;;;9.90;99.90;;;;;;5136876;27;20047;-88
2021/12/30 06:31:10;;;;;;;0.77;0.77;;;9.90;99.90;;;;;;5136922;27;20403;-93
2021/12/30 06:33:36;;;;;;;4.15;2.67;;;9.80;99.90;;;;;;5136655;27;20429;-91
2021/12/30 06:36:01;;;;;;;0.68;0.50;;;9.90;99.90;;;;;;5101283;27;20503;-91
2021/12/30 06:38:27;;;;;;;1.58;0.80;;;9.80;99.90;;;;;;5118051;27;20043;-91
2021/12/30 06:40:53;;;;;;;2.35;0.70;;;9.80;99.90;;;;;;5118418;27;20398;-86
2021/12/30 06:43:18;;;;;;;0.93;0.88;;;9.90;99.90;;;;;;5101532;27;20042;-91
2021/12/30 06:45:44;;;;;;;2.58;0.95;;;9.90;99.90;;;;;;5118151;27;20051;-92
2021/12/30 06:48:14;;;;;;;1.83;1.42;;;9.90;99.90;;;;;;5136824;27;20082;-91
2021/12/30 06:50:41;;;;;;;1.25;1.25;;;9.90;99.90;;;;;;5118151;27;20058;-92
2021/12/30 06:53:06;;;;;;;2.42;0.98;;;10.10;99.90;;;;;;5121834;27;20043;-91
2021/12/30 06:55:32;;;;;;;1.77;1.67;;;10.10;99.90;;;;;;5121623;27;20498;-91
2021/12/30 06:57:58;;;;;;;7.28;1.95;;;10.30;99.90;;;;;;5104338;27;20061;-89
2021/12/30 07:00:24;;;;;;;7.70;3.55;;;10.30;99.90;;;;;;5118627;27;20047;-84
2021/12/30 07:02:51;;;;;;;3.83;3.55;;;10.40;99.90;;;;;;5117791;27;20069;-88
2021/12/30 07:05:17;;;;;;;2.25;2.05;;;10.50;99.90;;;;;;5136326;27;20171;-90
2021/12/30 07:07:45;;;;;;;2.53;1.75;;;10.60;99.90;;;;;;5117496;27;20065;-88
2021/12/30 07:10:11;;;;;;;2.67;1.17;;;10.70;99.90;;;;;;5117367;27;20043;-88
2021/12/30 07:12:37;;;;;;;2.67;2.47;;;10.70;99.90;;;;;;5135461;27;20072;-87
2021/12/30 07:15:05;;;;;;;2.80;1.70;;;10.70;99.90;;;;;;5100182;27;20051;-87
2021/12/30 07:17:32;;;;;;;4.80;2.60;;;10.80;99.90;;;;;;5117220;27;20043;-89
2021/12/30 07:19:58;;;;;;;1.27;1.17;;;10.80;99.90;;;;;;5135787;27;20043;-87
2021/12/30 07:22:24;;;;;;;4.10;1.85;;;10.90;99.90;;;;;;5117548;27;20058;-89
2021/12/30 07:24:50;;;;;;;1.02;1.02;;;10.80;99.90;;;;;;5117432;27;20050;-89
2021/12/30 07:27:16;;;;;;;4.00;2.58;;;10.80;99.90;;;;;;5100636;27;20047;-92
2021/12/30 07:29:42;;;;;;;0.45;0.45;;;10.80;99.90;;;;;;5117329;27;20042;-90
2021/12/30 07:32:07;;;;;;;1.42;1.02;;;10.80;99.90;;;;;;5118472;27;20197;-86
2021/12/30 07:34:33;;;;;;;6.18;1.77;;;10.90;99.90;;;;;;5117456;27;20047;-91
2021/12/30 07:36:59;;;;;;;5.78;2.55;;;10.90;99.90;;;;;;5117885;27;20100;-94
2021/12/30 07:39:24;;;;;;;1.85;1.75;;;10.90;99.90;;;;;;5118667;27;20047;-91
2021/12/30 07:41:51;;;;;;;2.63;1.40;;;11.00;99.90;;;;;;5120049;27;20072;-90
2021/12/30 07:44:16;;;;;;;15.23;5.03;;;11.10;99.90;;;;;;5118021;27;20050;-91
2021/12/30 07:46:42;;;;;;;8.50;4.13;;;11.00;99.90;;;;;;5117369;27;20055;-91
2021/12/30 07:49:07;;;;;;;4.15;2.30;;;11.10;99.90;;;;;;5117397;28;20489;-91
2021/12/30 07:51:33;;;;;;;9.18;5.63;;;11.10;99.90;;;;;;5136316;27;20035;-93
2021/12/30 07:53:59;;;;;;;3.22;1.75;;;11.10;99.90;;;;;;5117579;27;20043;-93
2021/12/30 07:56:25;;;;;;;1.98;1.67;;;11.20;99.90;;;;;;5135031;27;20043;-94
2021/12/30 07:58:50;;;;;;;7.80;4.05;;;11.20;99.90;;;;;;5116998;27;20208;-94
2021/12/30 08:01:17;;;;;;;0.60;0.60;;;11.30;99.90;;;;;;5117255;28;20058;-93
2021/12/30 08:03:43;;;;;;;3.80;1.95;;;11.30;99.90;;;;;;5116618;27;20059;-91
2021/12/30 08:06:08;;;;;;;5.47;1.85;;;11.30;99.90;;;;;;5117116;28;20148;-92
2021/12/30 08:08:34;;;;;;;7.55;1.13;;;11.30;99.90;;;;;;5135540;27;20043;-91
2021/12/30 08:11:00;;;;;;;0.82;0.73;;;11.40;99.90;;;;;;5116966;28;20044;-91
2021/12/30 08:13:27;;;;;;;5.28;1.63;;;11.40;99.90;;;;;;5116764;28;20126;-90
2021/12/30 08:15:53;;;;;;;1.98;1.80;;;11.30;99.90;;;;;;5116247;28;20562;-88
2021/12/30 08:18:19;;;;;;;1.13;1.05;;;11.30;99.90;;;;;;5134843;28;20138;-90
2021/12/30 08:20:45;;;;;;;1.65;1.60;;;11.40;99.90;;;;;;5116788;28;20046;-91
2021/12/30 08:23:11;;;;;;;0.75;0.75;;;11.40;99.90;;;;;;5116425;28;20399;-92
2021/12/30 08:25:37;;;;;;;2.58;2.42;;;11.30;99.90;;;;;;5116714;28;20043;-92
2021/12/30 08:28:03;;;;;;;3.67;3.25;;;11.40;99.90;;;;;;5134928;28;20171;-90
2021/12/30 08:30:29;;;;;;;2.50;0.50;;;11.40;99.90;;;;;;5117144;28;20116;-91
2021/12/30 08:32:55;;;;;;;3.22;2.92;;;11.40;99.90;;;;;;5116714;28;20054;-91
2021/12/30 08:35:22;;;;;;;2.05;1.95;;;11.40;99.90;;;;;;5116578;28;20491;-92
2021/12/30 08:37:49;;;;;;;6.20;2.47;;;11.40;99.90;;;;;;5135236;28;20239;-89
2021/12/30 08:40:16;;;;;;;0.57;0.57;;;11.50;99.90;;;;;;5116455;28;20103;-90
2021/12/30 08:42:43;;;;;;;0.30;0.30;;;11.40;99.90;;;;;;5099836;28;20199;-89
2021/12/30 08:45:10;;;;;;;0.90;0.90;;;11.50;99.90;;;;;;5118640;28;20043;-90
2021/12/30 08:47:38;;;;;;;0.38;0.38;;;11.50;99.90;;;;;;5138086;28;20050;-91
2021/12/30 08:50:06;;;;;;;3.78;1.20;;;11.50;99.90;;;;;;5118924;28;20065;-92
2021/12/30 08:52:32;;;;;;;0.63;0.63;;;11.60;99.90;;;;;;5116680;28;20058;-92
2021/12/30 08:55:04;;;;;;;1.73;0.65;;;11.60;99.90;;;;;;5116515;28;20043;-88
2021/12/30 08:57:30;;;;;;;1.05;0.55;;;11.60;99.90;;;;;;5115565;28;20090;-89
2021/12/30 08:59:57;;;;;;;9.13;3.72;;;11.60;99.90;;;;;;5115716;28;20059;-88
2021/12/30 09:02:23;;;;;;;1.45;1.13;;;11.60;99.90;;;;;;5133979;28;20126;-88
2021/12/30 09:04:49;;;;;;;5.32;4.82;;;11.70;99.90;;;;;;5116137;28;20070;-91
2021/12/30 09:07:18;;;;;;;2.35;1.40;;;11.70;99.90;;;;;;5116135;28;20121;-92
2021/12/30 09:09:44;;;;;;;0.25;0.25;;;11.70;99.90;;;;;;5116135;28;20047;-93
2021/12/30 09:12:11;;;;;;;3.80;3.50;;;11.80;99.90;;;;;;5116886;28;20047;-91
2021/12/30 09:14:37;;;;;;;0.50;0.50;;;11.80;99.90;;;;;;5118629;27;20035;-92
2021/12/30 09:17:05;;;;;;;0.80;0.80;;;11.90;99.90;;;;;;5118384;27;20107;-91
2021/12/30 09:19:31;;;;;;;2.53;0.57;;;11.90;99.90;;;;;;5119883;27;20035;-90
2021/12/30 09:21:57;;;;;;;1.27;1.27;;;12.00;99.90;;;;;;5119876;27;20051;-93
2021/12/30 09:24:23;;;;;;;2.45;0.50;;;11.90;99.90;;;;;;5119885;27;20057;-86
2021/12/30 09:26:49;;;;;;;1.13;1.02;;;12.00;99.90;;;;;;5120194;27;20047;-91
2021/12/30 09:29:14;;;;;;;2.08;1.27;;;12.00;99.90;;;;;;5102922;27;20096;-93
2021/12/30 09:31:49;;;;;;;2.05;1.33;;;12.00;99.90;;;;;;5138102;27;20070;-92
2021/12/30 09:34:16;;;;;;;3.25;1.08;;;12.10;99.90;;;;;;5119910;27;20130;-91
2021/12/30 09:36:42;;;;;;;1.58;1.10;;;12.10;99.90;;;;;;5119807;27;20117;-87
2021/12/30 09:39:11;;;;;;;1.30;1.23;;;12.10;99.90;;;;;;5119646;27;20043;-90
2021/12/30 09:41:39;;;;;;;1.27;0.35;;;12.10;99.90;;;;;;5104347;27;20043;-86
2021/12/30 09:44:07;;;;;;;2.28;1.15;;;12.10;99.90;;;;;;5123403;27;20051;-88
2021/12/30 09:46:34;;;;;;;0.20;0.20;;;12.10;99.90;;;;;;5137991;27;20054;-90
2021/12/30 09:49:01;;;;;;;5.28;2.17;;;12.10;99.90;;;;;;5137680;27;20043;-87
2021/12/30 09:51:26;;;;;;;0.45;0.45;;;12.20;99.90;;;;;;5118869;27;20035;-90
2021/12/30 09:53:52;;;;;;;1.95;1.58;;;12.20;99.90;;;;;;5118755;27;20047;-88
2021/12/30 09:56:19;;;;;;;1.15;1.15;;;12.10;99.90;;;;;;5118252;27;20134;-88
2021/12/30 09:58:46;;;;;;;2.05;1.88;;;12.10;99.90;;;;;;5101263;27;20138;-90
2021/12/30 10:01:13;;;;;;;0.38;0.10;;;12.20;99.90;;;;;;5118634;27;20408;-88
2021/12/30 10:03:38;;;;;;;0.65;0.50;;;12.10;99.90;;;;;;5118760;27;20055;-90
2021/12/30 10:06:09;;;;;;;5.13;0.70;;;12.20;99.90;;;;;;5137209;27;20043;-88
2021/12/30 10:08:40;;;;;;;1.55;1.20;;;12.20;99.90;;;;;;5118837;27;20103;-88
2021/12/30 10:11:14;;;;;;;0.70;0.70;;;12.20;99.90;;;;;;5118868;27;20051;-90
2021/12/30 10:13:56;;;;;;;0.73;0.73;;;12.20;99.90;;;;;;5118516;27;20050;-92
2021/12/30 10:16:22;;;;;;;1.00;1.00;;;12.20;99.90;;;;;;5136517;27;20051;-87
2021/12/30 10:18:58;;;;;;;3.95;2.90;;;12.20;99.90;;;;;;5136970;27;20047;-89
2021/12/30 10:21:25;;;;;;;1.70;1.52;;;12.20;99.90;;;;;;5118983;27;20043;-89
2021/12/30 10:23:59;;;;;;;3.80;0.75;;;12.30;99.90;;;;;;5118946;27;20046;-89
2021/12/30 10:26:25;;;;;;;0.60;0.60;;;12.20;99.90;;;;;;5118682;27;20135;-91
2021/12/30 10:28:55;;;;;;;1.50;1.42;;;12.30;99.90;;;;;;5118880;27;20046;-91
2021/12/30 10:31:24;;;;;;;0.40;0.40;;;12.20;99.90;;;;;;5118638;27;20043;-88
2021/12/30 10:34:00;;;;;;;6.90;0.82;;;12.30;99.90;;;;;;5118453;27;20533;-89
2021/12/30 10:36:38;;;;;;;1.38;1.38;;;12.20;99.90;;;;;;5121511;27;20050;-92
2021/12/30 10:39:15;;;;;;;0.50;0.50;;;12.20;99.90;;;;;;5121789;27;20062;-91
2021/12/30 10:41:41;;;;;;;1.10;0.93;;;12.10;99.90;;;;;;5118452;27;20494;-90
2021/12/30 10:44:07;;;;;;;4.25;1.02;;;12.20;99.90;;;;;;5118060;27;20051;-91
2021/12/30 10:46:33;;;;;;;2.53;1.05;;;12.30;99.90;;;;;;5117908;27;20039;-91
2021/12/30 10:49:04;;;;;;;0.73;0.73;;;12.20;99.90;;;;;;5117500;27;20377;-87
2021/12/30 10:51:34;;;;;;;0.75;0.75;;;12.20;99.90;;;;;;5135682;27;20403;-86
2021/12/30 10:54:09;;;;;;;3.72;1.02;;;12.20;99.90;;;;;;5135650;27;20114;-89
2021/12/30 10:56:38;;;;;;;0.43;0.38;;;12.20;99.90;;;;;;5117143;27;20039;-85
2021/12/30 10:59:24;;;;;;;0.40;0.40;;;12.20;99.90;;;;;;5117328;27;20058;-89
2021/12/30 11:02:12;;;;;;;0.57;0.30;;;12.20;99.90;;;;;;5135940;27;20055;-90
2021/12/30 11:04:44;;;;;;;1.70;1.60;;;12.20;99.90;;;;;;5117619;27;20058;-89
2021/12/30 11:07:12;;;;;;;0.77;0.70;;;12.20;99.90;;;;;;5117866;27;20057;-89
2021/12/30 11:09:48;;;;;;;3.20;1.95;;;12.10;99.90;;;;;;5135726;27;20047;-89
2021/12/30 11:12:14;;;;;;;1.25;1.25;;;12.10;99.90;;;;;;5117548;27;20509;-88
2021/12/30 11:14:40;;;;;;;0.80;0.80;;;12.10;99.90;;;;;;5117667;27;20051;-86
2021/12/30 11:17:21;;;;;;;3.75;1.15;;;12.20;99.90;;;;;;5117219;27;20047;-90
2021/12/30 11:19:54;;;;;;;0.73;0.73;;;12.20;99.90;;;;;;5100550;27;20122;-91
2021/12/30 11:22:23;;;;;;;1.10;0.38;;;12.20;99.90;;;;;;5117974;27;20047;-90
2021/12/30 11:24:52;;;;;;;3.53;2.83;;;12.20;99.90;;;;;;5117965;27;20042;-92
2021/12/30 11:27:20;;;;;;;3.03;0.40;;;12.20;99.90;;;;;;5118245;27;20051;-92
2021/12/30 11:29:48;;;;;;;0.47;0.47;;;12.20;99.90;;;;;;5136488;27;20088;-87
2021/12/30 11:32:18;;;;;;;2.45;1.65;;;12.20;99.90;;;;;;5135838;27;20078;-92
2021/12/30 11:34:45;;;;;;;3.15;1.65;;;12.20;99.90;;;;;;5118069;27;20065;-92
2021/12/30 11:37:12;;;;;;;1.10;0.47;;;12.20;99.90;;;;;;5117499;27;20042;-89
2021/12/30 11:39:52;;;;;;;4.97;1.73;;;12.20;99.90;;;;;;5116611;27;20566;-91
2021/12/30 11:42:22;;;;;;;1.77;1.65;;;12.20;99.90;;;;;;5117998;27;20027;-92
2021/12/30 11:44:50;;;;;;;0.55;0.55;;;12.20;99.90;;;;;;5117938;27;20540;-95
2021/12/30 11:47:42;;;;;;;3.08;0.98;;;12.20;99.90;;;;;;5135347;27;20502;-93
2021/12/30 11:50:15;;;;;;;3.40;3.15;;;12.20;99.90;;;;;;5112589;27;20055;-94
2021/12/30 11:53:03;;;;;;;7.63;1.35;;;12.10;99.90;;;;;;5136265;27;20070;-94
2021/12/30 11:55:46;;;;;;;0.90;0.30;;;12.10;99.90;;;;;;5117623;27;20049;-91
2021/12/30 11:58:42;;;;;;;1.05;1.05;;;12.10;99.90;;;;;;5116767;27;20055;-95
2021/12/30 12:01:12;;;;;;;0.45;0.45;;;12.20;99.90;;;;;;5117404;27;20047;-94
2021/12/30 12:03:53;;;;;;;2.85;1.17;;;12.20;99.90;;;;;;5116955;27;20051;-95
2021/12/30 12:06:27;;;;;;;11.25;0.98;;;12.20;99.90;;;;;;5117157;27;20100;-93
2021/12/30 12:08:56;;;;;;;2.17;0.55;;;12.20;99.90;;;;;;5116950;27;20133;-90
2021/12/30 12:11:24;;;;;;;11.98;1.10;;;12.20;99.90;;;;;;5116975;28;20139;-94
2021/12/30 12:13:53;;;;;;;0.63;0.63;;;12.20;99.90;;;;;;5117170;28;20203;-91
2021/12/30 12:16:41;;;;;;;0.77;0.75;;;12.20;99.90;;;;;;5135271;28;20055;-86
2021/12/30 12:22:49;;;;;;;0.75;0.75;;;12.30;99.90;;;;;;5135427;28;20039;-92
2021/12/30 12:25:27;;;;;;;0.10;0.10;;;12.20;99.90;;;;;;5117008;28;20047;-93
2021/12/30 12:27:55;;;;;;;5.97;1.20;;;12.20;99.90;;;;;;5136639;28;20042;-90
2021/12/30 12:30:26;;;;;;;8.18;3.97;;;12.20;99.90;;;;;;5122511;28;20059;-88
2021/12/30 12:32:53;;;;;;;15.25;1.55;;;12.20;99.90;;;;;;5137721;28;20391;-86
2021/12/30 12:35:18;;;;;;;5.07;2.08;;;12.20;99.90;;;;;;5117161;28;20050;-92
2021/12/30 12:37:47;;;;;;;0.30;0.30;;;12.30;99.90;;;;;;5117193;28;20047;-90
2021/12/30 12:40:15;;;;;;;9.00;2.25;;;12.30;99.90;;;;;;5116640;28;20476;-91
2021/12/30 12:42:53;;;;;;;1.65;1.50;;;12.20;99.90;;;;;;5116552;28;20093;-90
2021/12/30 12:45:46;;;;;;;3.30;0.57;;;12.30;99.90;;;;;;5116404;28;20476;-82
2021/12/30 12:48:18;;;;;;;1.65;1.48;;;12.20;99.90;;;;;;5116467;28;20047;-88
2021/12/30 12:51:26;;;;;;;6.00;4.57;;;12.30;99.90;;;;;;5118366;27;20062;-84
2021/12/30 12:53:56;;;;;;;8.07;2.35;;;12.30;99.90;;;;;;5018991;28;20058;-88
2021/12/30 12:56:30;;;;;;;0.32;0.32;;;12.30;99.90;;;;;;5018990;28;20440;-90
2021/12/30 12:58:58;;;;;;;4.22;0.55;;;12.30;99.90;;;;;;5035162;28;20061;-90
2021/12/30 13:01:29;;;;;;;0.68;0.65;;;12.30;99.90;;;;;;5019204;28;20045;-91